sensor_id;sensor_type;location;lat;lon;timestamp;P1;durP1;ratioP1;P2;durP2;ratioP2
58982;SDS011;44771;49.982;8.560;2023-08-21T00:04:03;1999.90;;;999.90;;
58982;SDS011;44771;49.982;8.560;2023-08-21T00:09:05;1999.90;;;999.90;;
58982;SDS011;44771;49.982;8.560;2023-08-21T00:14:08;1999.90;;;999.90;;
58982;SDS011;44771;49.982;8.560;2023-08-21T00:19:10;1999.90;;;999.90;;
58982;SDS011;44771;49.982;8.560;2023-08-21T00:24:12;1999.90;;;999.90;;
58982;SDS011;44771;49.982;8.560;2023-08-21T00:29:15;1999.90;;;999.90;;
58982;SDS011;44771;49.982;8.560;2023-08-21T00:34:16;1999.90;;;999.90;;
58982;SDS011;44771;49.982;8.560;2023-08-21T00:39:18;1999.90;;;999.90;;
58982;SDS011;44771;49.982;8.560;2023-08-21T00:44:21;1999.90;;;999.90;;
58982;SDS011;44771;49.982;8.560;2023-08-21T00:49:23;1999.90;;;999.90;;
58982;SDS011;44771;49.982;8.560;2023-08-21T00:54:24;1999.90;;;999.90;;
58982;SDS011;44771;49.982;8.560;2023-08-21T00:59:28;1999.90;;;999.90;;
58982;SDS011;44771;49.982;8.560;2023-08-21T01:04:30;1999.90;;;999.90;;
58982;SDS011;44771;49.982;8.560;2023-08-21T01:09:33;1999.90;;;999.90;;
58982;SDS011;44771;49.982;8.560;2023-08-21T01:14:45;1999.90;;;999.90;;
58982;SDS011;44771;49.982;8.560;2023-08-21T01:19:53;1999.90;;;999.90;;
58982;SDS011;44771;49.982;8.560;2023-08-21T01:24:57;1999.90;;;999.90;;
58982;SDS011;44771;49.982;8.560;2023-08-21T01:29:59;1999.90;;;999.90;;
58982;SDS011;44771;49.982;8.560;2023-08-21T01:35:03;1999.90;;;999.90;;
58982;SDS011;44771;49.982;8.560;2023-08-21T01:40:08;1999.90;;;999.90;;
58982;SDS011;44771;49.982;8.560;2023-08-21T01:45:11;1999.90;;;999.90;;
58982;SDS011;44771;49.982;8.560;2023-08-21T01:50:12;1999.90;;;999.90;;
58982;SDS011;44771;49.982;8.560;2023-08-21T01:55:15;1999.90;;;999.90;;
58982;SDS011;44771;49.982;8.560;2023-08-21T02:00:17;1999.90;;;999.90;;
58982;SDS011;44771;49.982;8.560;2023-08-21T02:05:19;1999.90;;;999.90;;
58982;SDS011;44771;49.982;8.560;2023-08-21T02:10:22;1999.90;;;999.90;;
58982;SDS011;44771;49.982;8.560;2023-08-21T02:15:24;1999.90;;;999.90;;
58982;SDS011;44771;49.982;8.560;2023-08-21T02:20:26;1999.90;;;999.90;;
58982;SDS011;44771;49.982;8.560;2023-08-21T02:25:29;1999.90;;;999.90;;
58982;SDS011;44771;49.982;8.560;2023-08-21T02:30:30;1999.90;;;999.90;;
58982;SDS011;44771;49.982;8.560;2023-08-21T02:35:32;1999.90;;;999.90;;
58982;SDS011;44771;49.982;8.560;2023-08-21T02:40:35;1999.90;;;999.90;;
58982;SDS011;44771;49.982;8.560;2023-08-21T02:45:37;1999.90;;;999.90;;
58982;SDS011;44771;49.982;8.560;2023-08-21T02:50:39;1999.90;;;999.90;;
58982;SDS011;44771;49.982;8.560;2023-08-21T02:55:42;1999.90;;;999.90;;
58982;SDS011;44771;49.982;8.560;2023-08-21T03:00:43;1999.90;;;999.90;;
58982;SDS011;44771;49.982;8.560;2023-08-21T03:05:45;1999.90;;;999.90;;
58982;SDS011;44771;49.982;8.560;2023-08-21T03:10:48;1999.90;;;999.90;;
58982;SDS011;44771;49.982;8.560;2023-08-21T03:15:50;1999.90;;;999.90;;
58982;SDS011;44771;49.982;8.560;2023-08-21T03:20:52;1999.90;;;999.90;;
58982;SDS011;44771;49.982;8.560;2023-08-21T03:25:55;1999.90;;;999.90;;
58982;SDS011;44771;49.982;8.560;2023-08-21T03:30:56;1999.90;;;999.90;;
58982;SDS011;44771;49.982;8.560;2023-08-21T03:35:58;1999.90;;;999.90;;
58982;SDS011;44771;49.982;8.560;2023-08-21T03:41:01;1999.90;;;999.90;;
58982;SDS011;44771;49.982;8.560;2023-08-21T03:46:03;1999.90;;;999.90;;
58982;SDS011;44771;49.982;8.560;2023-08-21T03:51:05;1999.90;;;999.90;;
58982;SDS011;44771;49.982;8.560;2023-08-21T03:56:08;1999.90;;;999.90;;
58982;SDS011;44771;49.982;8.560;2023-08-21T04:01:10;1999.90;;;999.90;;
58982;SDS011;44771;49.982;8.560;2023-08-21T04:06:12;1999.90;;;999.90;;
58982;SDS011;44771;49.982;8.560;2023-08-21T04:11:15;1999.90;;;999.90;;
58982;SDS011;44771;49.982;8.560;2023-08-21T04:16:17;1999.90;;;999.90;;
58982;SDS011;44771;49.982;8.560;2023-08-21T04:21:18;1999.90;;;999.90;;
58982;SDS011;44771;49.982;8.560;2023-08-21T04:26:22;1999.90;;;999.90;;
58982;SDS011;44771;49.982;8.560;2023-08-21T04:31:24;1999.90;;;999.90;;
58982;SDS011;44771;49.982;8.560;2023-08-21T04:36:25;1999.90;;;999.90;;
58982;SDS011;44771;49.982;8.560;2023-08-21T04:41:29;1999.90;;;999.90;;
58982;SDS011;44771;49.982;8.560;2023-08-21T04:46:30;1999.90;;;999.90;;
58982;SDS011;44771;49.982;8.560;2023-08-21T04:51:32;1999.90;;;999.90;;
58982;SDS011;44771;49.982;8.560;2023-08-21T04:56:35;1999.90;;;999.90;;
58982;SDS011;44771;49.982;8.560;2023-08-21T05:01:37;1999.90;;;999.90;;
58982;SDS011;44771;49.982;8.560;2023-08-21T05:06:39;1999.90;;;999.90;;
58982;SDS011;44771;49.982;8.560;2023-08-21T05:11:42;1999.90;;;999.90;;
58982;SDS011;44771;49.982;8.560;2023-08-21T05:16:43;63.63;;;51.22;;
58982;SDS011;44771;49.982;8.560;2023-08-21T05:21:45;107.72;;;74.30;;
58982;SDS011;44771;49.982;8.560;2023-08-21T05:26:48;42.62;;;38.55;;
58982;SDS011;44771;49.982;8.560;2023-08-21T05:31:50;45.30;;;41.45;;
58982;SDS011;44771;49.982;8.560;2023-08-21T05:36:51;43.47;;;39.70;;
58982;SDS011;44771;49.982;8.560;2023-08-21T05:41:54;43.58;;;39.42;;
58982;SDS011;44771;49.982;8.560;2023-08-21T05:46:56;45.63;;;41.53;;
58982;SDS011;44771;49.982;8.560;2023-08-21T05:51:58;45.28;;;41.08;;
58982;SDS011;44771;49.982;8.560;2023-08-21T05:57:01;44.45;;;40.47;;
58982;SDS011;44771;49.982;8.560;2023-08-21T06:02:03;48.70;;;44.10;;
58982;SDS011;44771;49.982;8.560;2023-08-21T06:07:05;46.28;;;42.25;;
58982;SDS011;44771;49.982;8.560;2023-08-21T06:12:09;45.63;;;41.45;;
58982;SDS011;44771;49.982;8.560;2023-08-21T06:17:10;48.15;;;43.47;;
58982;SDS011;44771;49.982;8.560;2023-08-21T06:22:12;48.38;;;44.08;;
58982;SDS011;44771;49.982;8.560;2023-08-21T06:27:16;45.83;;;41.83;;
58982;SDS011;44771;49.982;8.560;2023-08-21T06:32:17;48.33;;;44.30;;
58982;SDS011;44771;49.982;8.560;2023-08-21T06:37:21;46.45;;;42.45;;
58982;SDS011;44771;49.982;8.560;2023-08-21T06:42:24;46.40;;;42.88;;
58982;SDS011;44771;49.982;8.560;2023-08-21T06:47:26;44.13;;;40.40;;
58982;SDS011;44771;49.982;8.560;2023-08-21T06:52:28;46.25;;;42.45;;
58982;SDS011;44771;49.982;8.560;2023-08-21T06:57:31;43.80;;;40.10;;
58982;SDS011;44771;49.982;8.560;2023-08-21T07:02:33;43.65;;;40.35;;
58982;SDS011;44771;49.982;8.560;2023-08-21T07:07:34;45.85;;;42.60;;
58982;SDS011;44771;49.982;8.560;2023-08-21T07:12:38;45.95;;;42.42;;
58982;SDS011;44771;49.982;8.560;2023-08-21T07:17:40;46.58;;;42.33;;
58982;SDS011;44771;49.982;8.560;2023-08-21T07:22:42;46.47;;;43.00;;
58982;SDS011;44771;49.982;8.560;2023-08-21T07:27:45;44.03;;;40.63;;
58982;SDS011;44771;49.982;8.560;2023-08-21T07:32:46;42.70;;;39.58;;
58982;SDS011;44771;49.982;8.560;2023-08-21T07:37:48;42.45;;;39.25;;
58982;SDS011;44771;49.982;8.560;2023-08-21T07:42:51;43.63;;;40.38;;
58982;SDS011;44771;49.982;8.560;2023-08-21T07:47:53;43.95;;;40.78;;
58982;SDS011;44771;49.982;8.560;2023-08-21T07:53:13;41.55;;;38.63;;
58982;SDS011;44771;49.982;8.560;2023-08-21T07:58:16;44.88;;;41.05;;
58982;SDS011;44771;49.982;8.560;2023-08-21T08:03:18;46.55;;;43.13;;
58982;SDS011;44771;49.982;8.560;2023-08-21T08:08:19;44.80;;;41.60;;
58982;SDS011;44771;49.982;8.560;2023-08-21T08:13:22;45.10;;;41.25;;
58982;SDS011;44771;49.982;8.560;2023-08-21T08:18:24;44.20;;;40.88;;
58982;SDS011;44771;49.982;8.560;2023-08-21T08:23:26;43.45;;;40.12;;
58982;SDS011;44771;49.982;8.560;2023-08-21T08:28:29;42.88;;;39.47;;
58982;SDS011;44771;49.982;8.560;2023-08-21T08:33:31;45.33;;;42.08;;
58982;SDS011;44771;49.982;8.560;2023-08-21T08:38:32;43.95;;;40.65;;
58982;SDS011;44771;49.982;8.560;2023-08-21T08:43:35;44.75;;;41.70;;
58982;SDS011;44771;49.982;8.560;2023-08-21T08:48:42;47.00;;;43.80;;
58982;SDS011;44771;49.982;8.560;2023-08-21T08:53:44;45.28;;;41.72;;
58982;SDS011;44771;49.982;8.560;2023-08-21T08:58:47;43.85;;;40.53;;
58982;SDS011;44771;49.982;8.560;2023-08-21T09:03:49;45.22;;;41.92;;
58982;SDS011;44771;49.982;8.560;2023-08-21T09:08:54;51.03;;;47.40;;
58982;SDS011;44771;49.982;8.560;2023-08-21T09:13:58;46.08;;;42.67;;
58982;SDS011;44771;49.982;8.560;2023-08-21T09:19:00;48.55;;;44.88;;
58982;SDS011;44771;49.982;8.560;2023-08-21T09:24:01;47.30;;;43.90;;
58982;SDS011;44771;49.982;8.560;2023-08-21T09:29:05;1999.90;;;999.90;;
58982;SDS011;44771;49.982;8.560;2023-08-21T09:34:06;1999.90;;;999.90;;
58982;SDS011;44771;49.982;8.560;2023-08-21T09:39:10;1999.90;;;999.90;;
58982;SDS011;44771;49.982;8.560;2023-08-21T09:44:17;1999.90;;;999.90;;
58982;SDS011;44771;49.982;8.560;2023-08-21T09:49:19;1999.90;;;999.90;;
58982;SDS011;44771;49.982;8.560;2023-08-21T09:54:23;1999.90;;;999.90;;
58982;SDS011;44771;49.982;8.560;2023-08-21T09:59:26;1999.90;;;999.90;;
58982;SDS011;44771;49.982;8.560;2023-08-21T10:04:29;1999.90;;;999.90;;
58982;SDS011;44771;49.982;8.560;2023-08-21T10:09:33;1999.90;;;999.90;;
58982;SDS011;44771;49.982;8.560;2023-08-21T10:14:37;1999.90;;;999.90;;
58982;SDS011;44771;49.982;8.560;2023-08-21T10:19:39;1999.90;;;999.90;;
58982;SDS011;44771;49.982;8.560;2023-08-21T10:24:41;1999.90;;;999.90;;
58982;SDS011;44771;49.982;8.560;2023-08-21T10:29:46;1999.90;;;999.90;;
58982;SDS011;44771;49.982;8.560;2023-08-21T10:34:58;1999.90;;;999.90;;
58982;SDS011;44771;49.982;8.560;2023-08-21T10:40:02;1999.90;;;999.90;;
58982;SDS011;44771;49.982;8.560;2023-08-21T10:45:10;1999.90;;;999.90;;
58982;SDS011;44771;49.982;8.560;2023-08-21T10:50:13;1999.90;;;999.90;;
58982;SDS011;44771;49.982;8.560;2023-08-21T10:55:15;1999.90;;;999.90;;
58982;SDS011;44771;49.982;8.560;2023-08-21T11:00:19;1999.90;;;999.90;;
58982;SDS011;44771;49.982;8.560;2023-08-21T11:05:21;1999.90;;;999.90;;
58982;SDS011;44771;49.982;8.560;2023-08-21T11:10:23;36.42;;;34.25;;
58982;SDS011;44771;49.982;8.560;2023-08-21T11:15:27;57.28;;;51.90;;
58982;SDS011;44771;49.982;8.560;2023-08-21T11:20:30;41.67;;;39.28;;
58982;SDS011;44771;49.982;8.560;2023-08-21T11:25:32;67.97;;;42.22;;
58982;SDS011;44771;49.982;8.560;2023-08-21T11:30:36;41.47;;;39.05;;
58982;SDS011;44771;49.982;8.560;2023-08-21T11:35:38;43.77;;;40.97;;
58982;SDS011;44771;49.982;8.560;2023-08-21T11:40:41;41.35;;;38.95;;
58982;SDS011;44771;49.982;8.560;2023-08-21T11:45:44;41.95;;;39.45;;
58982;SDS011;44771;49.982;8.560;2023-08-21T11:50:59;42.30;;;39.80;;
58982;SDS011;44771;49.982;8.560;2023-08-21T11:56:02;41.67;;;38.97;;
58982;SDS011;44771;49.982;8.560;2023-08-21T12:01:05;1999.90;;;999.90;;
58982;SDS011;44771;49.982;8.560;2023-08-21T12:06:07;1999.90;;;999.90;;
58982;SDS011;44771;49.982;8.560;2023-08-21T12:11:09;1999.90;;;999.90;;
58982;SDS011;44771;49.982;8.560;2023-08-21T12:16:12;1999.90;;;999.90;;
58982;SDS011;44771;49.982;8.560;2023-08-21T12:21:14;1999.90;;;999.90;;
58982;SDS011;44771;49.982;8.560;2023-08-21T12:26:16;1999.90;;;999.90;;
58982;SDS011;44771;49.982;8.560;2023-08-21T12:31:19;1999.90;;;999.90;;
58982;SDS011;44771;49.982;8.560;2023-08-21T12:36:21;1999.90;;;999.90;;
58982;SDS011;44771;49.982;8.560;2023-08-21T12:41:23;1999.90;;;999.90;;
58982;SDS011;44771;49.982;8.560;2023-08-21T12:46:26;1999.90;;;999.90;;
58982;SDS011;44771;49.982;8.560;2023-08-21T12:51:28;1999.90;;;999.90;;
58982;SDS011;44771;49.982;8.560;2023-08-21T12:56:30;1999.90;;;999.90;;
58982;SDS011;44771;49.982;8.560;2023-08-21T13:01:33;1999.90;;;999.90;;
58982;SDS011;44771;49.982;8.560;2023-08-21T13:06:35;1999.90;;;999.90;;
58982;SDS011;44771;49.982;8.560;2023-08-21T13:11:36;1999.90;;;999.90;;
58982;SDS011;44771;49.982;8.560;2023-08-21T13:16:40;1999.90;;;999.90;;
58982;SDS011;44771;49.982;8.560;2023-08-21T13:21:41;1999.90;;;999.90;;
58982;SDS011;44771;49.982;8.560;2023-08-21T13:26:43;1999.90;;;999.90;;
58982;SDS011;44771;49.982;8.560;2023-08-21T13:31:46;1999.90;;;999.90;;
58982;SDS011;44771;49.982;8.560;2023-08-21T13:36:48;1999.90;;;999.90;;
58982;SDS011;44771;49.982;8.560;2023-08-21T13:41:50;1999.90;;;999.90;;
58982;SDS011;44771;49.982;8.560;2023-08-21T13:46:53;1999.90;;;999.90;;
58982;SDS011;44771;49.982;8.560;2023-08-21T13:51:55;1999.90;;;999.90;;
58982;SDS011;44771;49.982;8.560;2023-08-21T13:56:56;1999.90;;;999.90;;
58982;SDS011;44771;49.982;8.560;2023-08-21T14:01:59;1999.90;;;999.90;;
58982;SDS011;44771;49.982;8.560;2023-08-21T14:07:01;1999.90;;;999.90;;
58982;SDS011;44771;49.982;8.560;2023-08-21T14:12:03;1999.90;;;999.90;;
58982;SDS011;44771;49.982;8.560;2023-08-21T14:17:06;1999.90;;;999.90;;
58982;SDS011;44771;49.982;8.560;2023-08-21T14:22:08;1999.90;;;999.90;;
58982;SDS011;44771;49.982;8.560;2023-08-21T14:27:10;1999.90;;;999.90;;
58982;SDS011;44771;49.982;8.560;2023-08-21T14:32:13;1999.90;;;999.90;;
58982;SDS011;44771;49.982;8.560;2023-08-21T14:37:15;1999.90;;;999.90;;
58982;SDS011;44771;49.982;8.560;2023-08-21T14:42:17;1999.90;;;999.90;;
58982;SDS011;44771;49.982;8.560;2023-08-21T14:47:20;1999.90;;;999.90;;
58982;SDS011;44771;49.982;8.560;2023-08-21T14:52:21;1999.90;;;999.90;;
58982;SDS011;44771;49.982;8.560;2023-08-21T14:57:23;1999.90;;;999.90;;
58982;SDS011;44771;49.982;8.560;2023-08-21T15:02:26;1999.90;;;999.90;;
58982;SDS011;44771;49.982;8.560;2023-08-21T15:07:28;1999.90;;;999.90;;
58982;SDS011;44771;49.982;8.560;2023-08-21T15:12:30;1999.90;;;999.90;;
58982;SDS011;44771;49.982;8.560;2023-08-21T15:17:33;1999.90;;;999.90;;
58982;SDS011;44771;49.982;8.560;2023-08-21T15:22:35;1999.90;;;999.90;;
58982;SDS011;44771;49.982;8.560;2023-08-21T15:27:36;1999.90;;;999.90;;
58982;SDS011;44771;49.982;8.560;2023-08-21T15:32:40;1999.90;;;999.90;;
58982;SDS011;44771;49.982;8.560;2023-08-21T15:37:43;1999.90;;;999.90;;
58982;SDS011;44771;49.982;8.560;2023-08-21T15:42:44;1999.90;;;999.90;;
58982;SDS011;44771;49.982;8.560;2023-08-21T15:47:47;1999.90;;;999.90;;
58982;SDS011;44771;49.982;8.560;2023-08-21T15:52:52;1999.90;;;999.90;;
58982;SDS011;44771;49.982;8.560;2023-08-21T15:57:53;1999.90;;;999.90;;
58982;SDS011;44771;49.982;8.560;2023-08-21T16:02:57;1999.90;;;999.90;;
58982;SDS011;44771;49.982;8.560;2023-08-21T16:07:58;1999.90;;;999.90;;
58982;SDS011;44771;49.982;8.560;2023-08-21T16:13:00;1999.90;;;999.90;;
58982;SDS011;44771;49.982;8.560;2023-08-21T16:18:04;1999.90;;;999.90;;
58982;SDS011;44771;49.982;8.560;2023-08-21T16:23:06;1999.90;;;999.90;;
58982;SDS011;44771;49.982;8.560;2023-08-21T16:28:08;1999.90;;;999.90;;
58982;SDS011;44771;49.982;8.560;2023-08-21T16:33:11;1999.90;;;999.90;;
58982;SDS011;44771;49.982;8.560;2023-08-21T16:38:13;1999.90;;;999.90;;
58982;SDS011;44771;49.982;8.560;2023-08-21T16:43:14;1999.90;;;999.90;;
58982;SDS011;44771;49.982;8.560;2023-08-21T16:48:18;1999.90;;;999.90;;
58982;SDS011;44771;49.982;8.560;2023-08-21T16:53:20;1999.90;;;999.90;;
58982;SDS011;44771;49.982;8.560;2023-08-21T16:58:24;1999.90;;;999.90;;
58982;SDS011;44771;49.982;8.560;2023-08-21T17:03:27;1999.90;;;999.90;;
58982;SDS011;44771;49.982;8.560;2023-08-21T17:08:29;1999.90;;;999.90;;
58982;SDS011;44771;49.982;8.560;2023-08-21T17:13:31;1999.90;;;999.90;;
58982;SDS011;44771;49.982;8.560;2023-08-21T17:18:34;1999.90;;;999.90;;
58982;SDS011;44771;49.982;8.560;2023-08-21T17:23:36;1999.90;;;999.90;;
58982;SDS011;44771;49.982;8.560;2023-08-21T17:28:37;1999.90;;;999.90;;
58982;SDS011;44771;49.982;8.560;2023-08-21T17:33:40;1999.90;;;999.90;;
58982;SDS011;44771;49.982;8.560;2023-08-21T17:38:42;1999.90;;;999.90;;
58982;SDS011;44771;49.982;8.560;2023-08-21T17:43:44;1999.90;;;999.90;;
58982;SDS011;44771;49.982;8.560;2023-08-21T17:48:47;1999.90;;;999.90;;
58982;SDS011;44771;49.982;8.560;2023-08-21T17:53:49;1999.90;;;999.90;;
58982;SDS011;44771;49.982;8.560;2023-08-21T17:58:50;1999.90;;;999.90;;
58982;SDS011;44771;49.982;8.560;2023-08-21T18:03:53;1999.90;;;999.90;;
58982;SDS011;44771;49.982;8.560;2023-08-21T18:08:55;1999.90;;;999.90;;
58982;SDS011;44771;49.982;8.560;2023-08-21T18:13:57;1999.90;;;999.90;;
58982;SDS011;44771;49.982;8.560;2023-08-21T18:19:00;1999.90;;;999.90;;
58982;SDS011;44771;49.982;8.560;2023-08-21T18:24:02;1999.90;;;999.90;;
58982;SDS011;44771;49.982;8.560;2023-08-21T18:29:04;1999.90;;;999.90;;
58982;SDS011;44771;49.982;8.560;2023-08-21T18:34:07;1999.90;;;999.90;;
58982;SDS011;44771;49.982;8.560;2023-08-21T18:39:09;1999.90;;;999.90;;
58982;SDS011;44771;49.982;8.560;2023-08-21T18:44:10;1999.90;;;999.90;;
58982;SDS011;44771;49.982;8.560;2023-08-21T18:49:14;1999.90;;;999.90;;
58982;SDS011;44771;49.982;8.560;2023-08-21T18:54:15;1999.90;;;999.90;;
58982;SDS011;44771;49.982;8.560;2023-08-21T18:59:18;1999.90;;;999.90;;
58982;SDS011;44771;49.982;8.560;2023-08-21T19:04:21;1999.90;;;999.90;;
58982;SDS011;44771;49.982;8.560;2023-08-21T19:09:23;1999.90;;;999.90;;
58982;SDS011;44771;49.982;8.560;2023-08-21T19:14:25;1999.90;;;999.90;;
58982;SDS011;44771;49.982;8.560;2023-08-21T19:19:28;1999.90;;;999.90;;
58982;SDS011;44771;49.982;8.560;2023-08-21T19:24:29;1999.90;;;999.90;;
58982;SDS011;44771;49.982;8.560;2023-08-21T19:29:31;1999.90;;;999.90;;
58982;SDS011;44771;49.982;8.560;2023-08-21T19:34:34;1999.90;;;999.90;;
58982;SDS011;44771;49.982;8.560;2023-08-21T19:39:36;1999.90;;;999.90;;
58982;SDS011;44771;49.982;8.560;2023-08-21T19:44:38;1999.90;;;999.90;;
58982;SDS011;44771;49.982;8.560;2023-08-21T19:49:41;1999.90;;;999.90;;
58982;SDS011;44771;49.982;8.560;2023-08-21T19:54:43;1999.90;;;999.90;;
58982;SDS011;44771;49.982;8.560;2023-08-21T19:59:44;1999.90;;;999.90;;
58982;SDS011;44771;49.982;8.560;2023-08-21T20:04:48;1999.90;;;999.90;;
58982;SDS011;44771;49.982;8.560;2023-08-21T20:09:49;1999.90;;;999.90;;
58982;SDS011;44771;49.982;8.560;2023-08-21T20:14:51;1999.90;;;999.90;;
58982;SDS011;44771;49.982;8.560;2023-08-21T20:19:54;1999.90;;;999.90;;
58982;SDS011;44771;49.982;8.560;2023-08-21T20:24:56;1999.90;;;999.90;;
58982;SDS011;44771;49.982;8.560;2023-08-21T20:29:58;1999.90;;;999.90;;
58982;SDS011;44771;49.982;8.560;2023-08-21T20:35:01;1999.90;;;999.90;;
58982;SDS011;44771;49.982;8.560;2023-08-21T20:40:03;1999.90;;;999.90;;
58982;SDS011;44771;49.982;8.560;2023-08-21T20:45:06;1999.90;;;999.90;;
58982;SDS011;44771;49.982;8.560;2023-08-21T20:50:10;1999.90;;;999.90;;
58982;SDS011;44771;49.982;8.560;2023-08-21T20:55:12;1999.90;;;999.90;;
58982;SDS011;44771;49.982;8.560;2023-08-21T21:00:13;1999.90;;;999.90;;
58982;SDS011;44771;49.982;8.560;2023-08-21T21:05:17;1999.90;;;999.90;;
58982;SDS011;44771;49.982;8.560;2023-08-21T21:10:19;1999.90;;;999.90;;
58982;SDS011;44771;49.982;8.560;2023-08-21T21:15:21;1999.90;;;999.90;;
58982;SDS011;44771;49.982;8.560;2023-08-21T21:20:24;1999.90;;;999.90;;
58982;SDS011;44771;49.982;8.560;2023-08-21T21:25:25;1999.90;;;999.90;;
58982;SDS011;44771;49.982;8.560;2023-08-21T21:30:27;1999.90;;;999.90;;
58982;SDS011;44771;49.982;8.560;2023-08-21T21:35:30;1999.90;;;999.90;;
58982;SDS011;44771;49.982;8.560;2023-08-21T21:40:32;1999.90;;;999.90;;
58982;SDS011;44771;49.982;8.560;2023-08-21T21:45:34;1999.90;;;999.90;;
58982;SDS011;44771;49.982;8.560;2023-08-21T21:50:37;1999.90;;;999.90;;
58982;SDS011;44771;49.982;8.560;2023-08-21T21:55:39;1999.90;;;999.90;;
58982;SDS011;44771;49.982;8.560;2023-08-21T22:00:40;1999.90;;;999.90;;
58982;SDS011;44771;49.982;8.560;2023-08-21T22:05:43;1999.90;;;999.90;;
58982;SDS011;44771;49.982;8.560;2023-08-21T22:10:45;1999.90;;;999.90;;
58982;SDS011;44771;49.982;8.560;2023-08-21T22:15:47;1999.90;;;999.90;;
58982;SDS011;44771;49.982;8.560;2023-08-21T22:20:50;1999.90;;;999.90;;
58982;SDS011;44771;49.982;8.560;2023-08-21T22:25:52;1999.90;;;999.90;;
58982;SDS011;44771;49.982;8.560;2023-08-21T22:30:54;1999.90;;;999.90;;
58982;SDS011;44771;49.982;8.560;2023-08-21T22:35:57;1999.90;;;999.90;;
58982;SDS011;44771;49.982;8.560;2023-08-21T22:41:01;1999.90;;;999.90;;
58982;SDS011;44771;49.982;8.560;2023-08-21T22:46:04;1999.90;;;999.90;;
58982;SDS011;44771;49.982;8.560;2023-08-21T22:51:07;1999.90;;;999.90;;
58982;SDS011;44771;49.982;8.560;2023-08-21T22:56:09;1999.90;;;999.90;;
58982;SDS011;44771;49.982;8.560;2023-08-21T23:01:10;1999.90;;;999.90;;
58982;SDS011;44771;49.982;8.560;2023-08-21T23:06:13;1999.90;;;999.90;;
58982;SDS011;44771;49.982;8.560;2023-08-21T23:11:15;1999.90;;;999.90;;
58982;SDS011;44771;49.982;8.560;2023-08-21T23:16:17;1999.90;;;999.90;;
58982;SDS011;44771;49.982;8.560;2023-08-21T23:21:20;1999.90;;;999.90;;
58982;SDS011;44771;49.982;8.560;2023-08-21T23:26:24;1999.90;;;999.90;;
58982;SDS011;44771;49.982;8.560;2023-08-21T23:31:26;1999.90;;;999.90;;
58982;SDS011;44771;49.982;8.560;2023-08-21T23:36:29;1999.90;;;999.90;;
58982;SDS011;44771;49.982;8.560;2023-08-21T23:41:31;1999.90;;;999.90;;
58982;SDS011;44771;49.982;8.560;2023-08-21T23:46:33;1999.90;;;999.90;;
58982;SDS011;44771;49.982;8.560;2023-08-21T23:51:37;1999.90;;;999.90;;
58982;SDS011;44771;49.982;8.560;2023-08-21T23:56:38;1999.90;;;999.90;;
